Time;durP1;ratioP1;P1;durP2;ratioP2;P2;SDS_P1;SDS_P2;PMS_P1;PMS_P2;Temp;Humidity;BMP_temperature;BMP_pressure;BME280_temperature;BME280_humidity;BME280_pressure;Samples;Min_cycle;Max_cycle;Signal;HPM_P1;HPM_P2
2022/11/21 00:01:18;;;;;;;11.43;3.28;;;;;;;9.12;67.08;100478.03;5140520;27;20051;-66
2022/11/21 00:03:46;;;;;;;13.23;3.00;;;;;;;9.11;66.60;100484.44;5142026;27;20042;-67
2022/11/21 00:06:16;;;;;;;15.20;3.45;;;;;;;9.11;66.57;100479.06;5146293;27;20086;-66
2022/11/21 00:08:45;;;;;;;12.95;2.70;;;;;;;9.12;66.80;100474.53;5139363;27;20124;-66
2022/11/21 00:11:13;;;;;;;19.17;3.30;;;;;;;9.12;66.61;100471.84;5144162;27;20055;-66
2022/11/21 00:13:41;;;;;;;11.82;2.72;;;;;;;9.10;66.98;100468.56;5144668;27;20103;-66
2022/11/21 00:16:12;;;;;;;10.38;2.63;;;;;;;9.09;67.25;100470.44;5145108;27;20103;-67
2022/11/21 00:18:41;;;;;;;8.68;2.70;;;;;;;9.09;66.80;100472.28;5135865;27;20042;-66
2022/11/21 00:21:12;;;;;;;11.00;3.30;;;;;;;9.07;66.75;100466.31;5145557;27;20840;-67
2022/11/21 00:23:41;;;;;;;12.48;3.40;;;;;;;9.07;66.61;100463.66;5140371;27;20043;-67
2022/11/21 00:26:11;;;;;;;11.50;3.13;;;;;;;8.93;67.19;100446.88;5135595;27;20043;-67
2022/11/21 00:28:38;;;;;;;10.00;3.80;;;;;;;9.05;66.39;100468.41;5136837;27;20044;-67
2022/11/21 00:31:07;;;;;;;9.77;2.47;;;;;;;9.05;66.71;100471.09;5139103;27;20055;-67
2022/11/21 00:33:36;;;;;;;11.80;3.30;;;;;;;9.03;66.94;100476.66;5144157;27;20475;-67
2022/11/21 00:36:08;;;;;;;13.52;3.47;;;;;;;9.03;66.34;100484.72;5137230;27;20048;-67
2022/11/21 00:38:36;;;;;;;12.55;2.95;;;;;;;9.04;66.49;100485.53;5143882;27;20111;-67
2022/11/21 00:41:06;;;;;;;17.48;2.80;;;;;;;9.04;66.49;100483.66;5144993;27;20053;-67
2022/11/21 00:43:34;;;;;;;13.48;3.63;;;;;;;9.04;66.38;100489.03;5128551;27;20047;-67
2022/11/21 00:46:01;;;;;;;9.77;3.25;;;;;;;9.03;66.99;100481.22;5144362;27;20075;-67
2022/11/21 00:48:30;;;;;;;11.13;3.45;;;;;;;9.02;66.13;100471.53;5143422;27;20047;-67
2022/11/21 00:50:59;;;;;;;12.65;4.07;;;;;;;9.02;66.95;100476.88;5139276;27;20792;-67
2022/11/21 00:53:27;;;;;;;7.45;3.13;;;;;;;8.97;66.71;100476.72;5140721;27;20049;-67
2022/11/21 00:55:54;;;;;;;14.30;3.38;;;;;;;8.99;65.89;100475.47;5142849;27;20039;-68
2022/11/21 00:58:23;;;;;;;10.27;2.83;;;;;;;8.98;66.36;100471.16;5138268;27;20441;-67
2022/11/21 01:00:51;;;;;;;11.75;3.10;;;;;;;8.99;66.71;100469.28;5129191;27;20050;-67
2022/11/21 01:03:19;;;;;;;12.25;3.33;;;;;;;8.97;65.87;100469.50;5141120;27;20054;-67
2022/11/21 01:05:47;;;;;;;10.48;2.90;;;;;;;8.98;66.09;100479.19;5143783;27;20057;-67
2022/11/21 01:08:14;;;;;;;9.05;3.15;;;;;;;8.98;66.09;100468.47;5135000;27;20048;-67
2022/11/21 01:10:42;;;;;;;12.90;2.90;;;;;;;8.96;66.21;100473.22;5142135;27;20057;-67
2022/11/21 01:13:10;;;;;;;13.50;2.85;;;;;;;8.96;66.45;100472.41;5142698;27;20107;-66
2022/11/21 01:15:39;;;;;;;11.38;2.33;;;;;;;8.97;66.53;100479.41;5132787;27;20078;-66
2022/11/21 01:18:06;;;;;;;9.98;2.70;;;;;;;8.95;66.35;100474.28;5139243;27;20070;-67
2022/11/21 01:20:34;;;;;;;8.30;2.55;;;;;;;8.97;66.37;100474.03;5128911;27;20054;-67
2022/11/21 01:23:02;;;;;;;9.98;2.55;;;;;;;8.96;66.01;100475.91;5141133;27;20051;-67
2022/11/21 01:25:29;;;;;;;7.82;2.80;;;;;;;8.97;66.14;100477.53;5142978;27;20047;-67
2022/11/21 01:27:57;;;;;;;14.50;3.97;;;;;;;8.96;66.12;100475.91;5140648;27;20062;-67
2022/11/21 01:30:25;;;;;;;8.75;2.58;;;;;;;8.95;66.09;100476.13;5141500;27;20057;-67
2022/11/21 01:32:54;;;;;;;9.07;2.95;;;;;;;8.96;66.56;100481.28;5134769;27;20477;-67
2022/11/21 01:35:21;;;;;;;10.43;3.33;;;;;;;8.97;65.60;100474.03;5143307;27;20073;-67
2022/11/21 01:37:49;;;;;;;10.40;3.10;;;;;;;8.98;66.62;100464.97;5136338;27;20107;-67
2022/11/21 01:40:17;;;;;;;10.30;3.05;;;;;;;8.97;65.88;100466.00;5138109;28;20483;-67
2022/11/21 01:42:58;;;;;;;8.75;2.72;;;;;;;8.97;66.56;100472.19;5141362;28;20047;-67
2022/11/21 01:45:55;;;;;;;9.45;2.70;;;;;;;8.94;65.91;100467.28;5136389;28;20054;-67
2022/11/21 01:48:28;;;;;;;11.40;2.83;;;;;;;8.93;66.37;100470.16;5143442;28;20107;-67
2022/11/21 01:51:01;;;;;;;7.88;2.38;;;;;;;8.93;66.67;100465.63;5144324;28;20142;-67
2022/11/21 01:53:29;;;;;;;8.27;2.38;;;;;;;8.92;66.34;100464.00;5137269;28;20043;-67
2022/11/21 01:55:56;;;;;;;11.13;2.90;;;;;;;8.93;66.67;100464.81;5144260;28;20119;-67
2022/11/21 01:58:25;;;;;;;9.60;2.97;;;;;;;8.92;65.59;100464.00;5141070;28;20047;-67
2022/11/21 02:00:53;;;;;;;9.18;3.00;;;;;;;8.92;66.34;100464.00;5134199;27;20055;-67
2022/11/21 02:03:27;;;;;;;10.93;2.80;;;;;;;8.93;66.61;100467.50;5145158;27;21474;-67
2022/11/21 02:05:56;;;;;;;13.48;2.65;;;;;;;8.92;66.21;100461.31;5136772;27;20341;-67
2022/11/21 02:08:26;;;;;;;11.10;3.25;;;;;;;8.91;66.41;100450.81;5126652;28;20050;-67
2022/11/21 02:11:03;;;;;;;8.93;2.40;;;;;;;8.90;66.39;100454.53;5143877;27;20043;-67
2022/11/21 02:13:31;;;;;;;7.57;2.78;;;;;;;8.90;66.60;100459.88;5145798;27;20070;-68
2022/11/21 02:15:59;;;;;;;9.73;2.17;;;;;;;8.87;65.95;100461.16;5143153;27;20043;-67
2022/11/21 02:18:28;;;;;;;8.18;2.58;;;;;;;8.90;65.99;100467.94;5138879;27;20050;-67
2022/11/21 02:21:06;;;;;;;8.98;2.80;;;;;;;8.84;66.56;100458.91;5144719;27;20133;-67
2022/11/21 02:23:40;;;;;;;9.32;2.60;;;;;;;8.80;66.63;100453.16;5133404;27;20036;-68
2022/11/21 02:26:10;;;;;;;11.65;2.95;;;;;;;8.88;66.03;100467.31;5135208;27;20505;-68
2022/11/21 02:28:38;;;;;;;9.43;2.58;;;;;;;8.87;66.36;100471.06;5130780;27;20436;-67
2022/11/21 02:31:06;;;;;;;11.07;3.60;;;;;;;8.85;66.86;100457.06;5147316;27;20053;-67
2022/11/21 02:33:34;;;;;;;10.90;2.75;;;;;;;8.87;65.98;100463.81;5145540;27;20035;-67
2022/11/21 02:36:02;;;;;;;11.73;2.78;;;;;;;8.78;66.67;100454.44;5138492;27;20537;-67
2022/11/21 02:38:35;;;;;;;14.48;3.70;;;;;;;8.86;66.04;100461.38;5126277;28;20054;-67
2022/11/21 02:41:08;;;;;;;9.70;3.22;;;;;;;8.84;66.08;100466.94;5147548;27;20046;-67
2022/11/21 02:43:42;;;;;;;8.02;2.58;;;;;;;8.84;66.33;100485.69;5129620;27;20046;-67
2022/11/21 02:46:10;;;;;;;10.40;2.92;;;;;;;8.85;65.93;100494.56;5147210;27;20134;-67
2022/11/21 02:48:38;;;;;;;10.18;3.00;;;;;;;8.75;65.81;100471.75;5146776;27;20145;-67
2022/11/21 02:51:06;;;;;;;9.38;3.03;;;;;;;8.86;66.33;100485.47;5143268;27;20071;-68
2022/11/21 02:53:34;;;;;;;9.40;3.40;;;;;;;8.84;66.14;100479.53;5144872;27;20513;-67
2022/11/21 02:56:01;;;;;;;8.85;3.03;;;;;;;8.82;66.70;100474.38;5146412;27;20086;-67
2022/11/21 02:58:29;;;;;;;10.80;4.10;;;;;;;8.82;65.67;100467.16;5138582;27;20394;-67
2022/11/21 03:00:58;;;;;;;11.38;3.28;;;;;;;8.81;66.09;100468.22;5137481;27;20051;-67
2022/11/21 03:03:26;;;;;;;10.55;4.15;;;;;;;8.83;66.34;100470.66;5145024;27;20058;-67
2022/11/21 03:05:55;;;;;;;12.93;3.95;;;;;;;8.84;66.03;100474.16;5137981;27;20047;-67
2022/11/21 03:08:23;;;;;;;13.43;4.30;;;;;;;8.77;66.35;100475.03;5145061;27;20047;-67
2022/11/21 03:10:51;;;;;;;8.85;3.67;;;;;;;8.81;66.39;100483.47;5146238;27;20043;-67
2022/11/21 03:13:18;;;;;;;15.80;4.47;;;;;;;8.81;66.50;100480.78;5146569;27;20051;-67
2022/11/21 03:15:46;;;;;;;9.98;3.20;;;;;;;8.81;66.69;100478.09;5142323;27;20088;-67
2022/11/21 03:18:16;;;;;;;13.35;4.30;;;;;;;8.78;66.48;100465.16;5146911;27;20396;-67
2022/11/21 03:20:43;;;;;;;11.27;3.90;;;;;;;8.79;66.24;100467.59;5140324;27;20051;-67
2022/11/21 03:23:12;;;;;;;9.85;3.42;;;;;;;8.78;66.29;100474.00;5145698;27;20058;-67
2022/11/21 03:25:40;;;;;;;9.60;3.13;;;;;;;8.81;66.01;100475.44;5145732;27;20039;-67
2022/11/21 03:28:08;;;;;;;12.40;3.17;;;;;;;8.80;66.34;100471.94;5141775;27;20131;-67
2022/11/21 03:30:35;;;;;;;7.47;3.00;;;;;;;8.79;66.09;100464.09;5136693;27;20074;-67
2022/11/21 03:33:03;;;;;;;8.05;3.13;;;;;;;8.80;65.99;100460.38;5143218;27;20532;-67
2022/11/21 03:35:32;;;;;;;9.65;3.20;;;;;;;8.80;65.94;100461.22;5145582;27;20071;-67
2022/11/21 03:38:00;;;;;;;10.98;3.63;;;;;;;8.81;66.00;100459.34;5142607;27;20059;-67
2022/11/21 03:40:28;;;;;;;15.65;3.40;;;;;;;8.81;66.72;100464.72;5144371;27;20135;-67
2022/11/21 03:42:55;;;;;;;8.05;3.05;;;;;;;8.78;66.72;100459.78;5144812;27;20047;-67
2022/11/21 03:45:23;;;;;;;13.27;4.10;;;;;;;8.80;65.96;100458.53;5144811;27;20074;-67
2022/11/21 03:47:51;;;;;;;9.23;3.30;;;;;;;8.79;66.47;100464.94;5142367;27;20047;-67
2022/11/21 03:50:20;;;;;;;11.40;3.47;;;;;;;8.78;66.61;100468.66;5144280;27;20146;-67
2022/11/21 03:52:49;;;;;;;10.00;3.08;;;;;;;8.80;66.32;100460.38;5144635;27;20415;-67
2022/11/21 03:55:17;;;;;;;13.73;3.00;;;;;;;8.80;66.54;100460.38;5140654;27;20051;-67
2022/11/21 03:57:44;;;;;;;7.53;3.13;;;;;;;8.78;66.67;100468.66;5144552;27;20047;-67
2022/11/21 04:00:14;;;;;;;9.02;4.03;;;;;;;8.78;66.49;100474.00;5141729;27;20065;-68
2022/11/21 04:02:41;;;;;;;14.68;3.38;;;;;;;8.77;66.79;100477.72;5135005;27;20051;-67
2022/11/21 04:05:09;;;;;;;9.00;4.38;;;;;;;8.77;66.18;100480.41;5144406;27;20058;-67
2022/11/21 04:07:37;;;;;;;8.95;3.47;;;;;;;8.78;66.54;100476.69;5138507;27;20043;-67
2022/11/21 04:10:07;;;;;;;8.15;2.80;;;;;;;8.77;66.53;100464.31;5138995;27;20053;-67
2022/11/21 04:12:34;;;;;;;8.18;3.08;;;;;;;8.76;66.32;100465.38;5145683;27;20543;-67
2022/11/21 04:15:03;;;;;;;8.00;3.58;;;;;;;8.78;66.60;100460.59;5143117;27;20063;-67
2022/11/21 04:17:35;;;;;;;8.48;3.70;;;;;;;8.76;66.35;100456.50;5144378;27;20070;-67
2022/11/21 04:20:04;;;;;;;5.78;2.90;;;;;;;8.75;65.79;100463.72;5144247;27;20247;-67
2022/11/21 04:22:31;;;;;;;9.13;3.05;;;;;;;8.77;66.70;100458.16;5134479;27;20051;-67
2022/11/21 04:24:59;;;;;;;7.88;3.00;;;;;;;8.76;66.16;100464.53;5134740;27;20051;-68
2022/11/21 04:27:28;;;;;;;8.68;3.65;;;;;;;8.75;67.04;100461.03;5136570;27;20111;-67
2022/11/21 04:29:56;;;;;;;13.85;3.83;;;;;;;8.75;66.66;100462.91;5137478;27;20047;-67
2022/11/21 04:32:23;;;;;;;8.63;3.42;;;;;;;8.74;66.31;100475.47;5144959;27;20048;-67
2022/11/21 04:34:51;;;;;;;6.05;2.85;;;;;;;8.74;66.15;100456.72;5139695;27;20039;-68
2022/11/21 04:37:19;;;;;;;10.52;3.80;;;;;;;8.70;66.12;100444.00;5145477;27;20054;-67
2022/11/21 04:39:46;;;;;;;9.93;4.03;;;;;;;8.74;66.57;100447.88;5143736;27;20043;-68
2022/11/21 04:42:14;;;;;;;10.23;3.78;;;;;;;8.74;65.92;100450.56;5143206;27;20747;-68
2022/11/21 04:44:43;;;;;;;8.15;3.20;;;;;;;8.73;66.90;100451.59;5131058;27;20384;-67
2022/11/21 04:47:11;;;;;;;11.10;3.53;;;;;;;8.72;66.75;100456.13;5142483;27;20102;-67
2022/11/21 04:49:39;;;;;;;10.60;3.17;;;;;;;8.71;66.75;100435.72;5139866;27;20120;-67
2022/11/21 04:52:06;;;;;;;6.47;3.30;;;;;;;8.70;67.19;100433.28;5159689;27;20057;-67
2022/11/21 04:54:34;;;;;;;8.27;3.13;;;;;;;8.70;66.99;100430.59;5151324;27;20134;-67
2022/11/21 04:57:02;;;;;;;7.40;3.22;;;;;;;8.72;66.54;100436.56;5143657;27;20047;-67
2022/11/21 04:59:29;;;;;;;10.95;3.95;;;;;;;8.70;66.47;100438.63;5143100;27;20047;-67
2022/11/21 05:01:58;;;;;;;7.97;3.40;;;;;;;8.68;66.86;100435.34;5135026;27;20058;-67
2022/11/21 05:04:26;;;;;;;11.98;4.10;;;;;;;8.68;66.30;100436.16;5142558;27;20043;-67
2022/11/21 05:06:54;;;;;;;8.32;3.50;;;;;;;8.67;66.52;100437.22;5142541;27;20043;-67
2022/11/21 05:09:22;;;;;;;10.05;3.45;;;;;;;8.65;66.16;100438.50;5132914;27;20050;-67
2022/11/21 05:14:35;;;;;;;7.28;3.15;;;;;;;8.65;66.82;100425.94;5141688;27;20039;-67
2022/11/21 05:17:04;;;;;;;7.88;3.10;;;;;;;8.65;66.30;100417.06;5143504;27;20050;-67
2022/11/21 05:19:31;;;;;;;9.90;3.13;;;;;;;8.62;66.29;100410.28;5142176;27;20043;-67
2022/11/21 05:21:59;;;;;;;11.32;3.10;;;;;;;8.66;66.92;100422.22;5141507;27;20084;-67
2022/11/21 05:24:27;;;;;;;7.22;3.33;;;;;;;8.67;66.48;100423.81;5143109;27;20070;-67
2022/11/21 05:26:55;;;;;;;9.27;3.20;;;;;;;8.65;66.75;100411.72;5135713;27;20043;-67
2022/11/21 05:29:23;;;;;;;9.30;3.40;;;;;;;8.66;66.57;100410.66;5151900;27;20290;-67
2022/11/21 05:31:54;;;;;;;11.00;3.20;;;;;;;8.63;66.26;100403.06;5135183;27;20141;-67
2022/11/21 05:34:24;;;;;;;8.40;2.83;;;;;;;8.64;66.43;100407.41;5140166;27;20078;-67
2022/11/21 05:36:55;;;;;;;7.53;4.63;;;;;;;8.64;66.40;100402.84;5142329;27;20168;-68
2022/11/21 05:39:24;;;;;;;8.73;2.92;;;;;;;8.64;66.23;100402.84;5143234;27;20073;-68
2022/11/21 05:41:52;;;;;;;5.68;2.75;;;;;;;8.65;66.38;100395.63;5127974;28;20058;-68
2022/11/21 05:44:24;;;;;;;6.55;3.88;;;;;;;8.64;66.37;100397.50;5143589;28;20039;-67
2022/11/21 05:46:52;;;;;;;6.18;2.83;;;;;;;8.64;67.03;100402.03;5140166;28;20051;-67
2022/11/21 05:49:20;;;;;;;8.88;3.33;;;;;;;8.64;66.92;100399.34;5137849;28;20110;-67
2022/11/21 05:51:49;;;;;;;6.50;2.58;;;;;;;8.64;67.12;100388.66;5143622;28;20106;-67
2022/11/21 05:54:17;;;;;;;8.52;3.25;;;;;;;8.64;66.46;100388.66;5142498;28;20192;-68
2022/11/21 05:56:44;;;;;;;5.05;2.80;;;;;;;8.56;67.21;100375.53;5132471;28;20044;-68
2022/11/21 05:59:12;;;;;;;6.43;3.00;;;;;;;8.64;66.91;100385.97;5131621;28;20416;-67
2022/11/21 06:04:25;;;;;;;5.50;3.10;;;;;;;8.66;66.85;100387.38;5137668;28;20484;-67
2022/11/21 06:06:55;;;;;;;8.38;3.40;;;;;;;8.67;66.10;100388.16;5140786;28;20067;-68
2022/11/21 06:09:23;;;;;;;5.70;2.55;;;;;;;8.69;67.32;100388.78;5131477;28;20061;-69
2022/11/21 06:11:50;;;;;;;6.65;3.20;;;;;;;8.66;66.22;100391.91;5141403;28;20059;-67
2022/11/21 06:14:18;;;;;;;7.55;3.97;;;;;;;8.66;66.79;100391.91;5140675;28;20051;-67
2022/11/21 06:16:46;;;;;;;10.55;3.55;;;;;;;8.66;66.05;100379.34;5134630;28;20042;-67
2022/11/21 06:19:13;;;;;;;7.72;3.25;;;;;;;8.65;66.60;100382.25;5143903;28;20122;-67
2022/11/21 06:21:41;;;;;;;8.05;4.00;;;;;;;8.58;67.57;100374.28;5128481;28;20070;-67
2022/11/21 06:24:11;;;;;;;6.22;2.92;;;;;;;8.68;66.79;100387.13;5133385;28;20043;-67
2022/11/21 06:26:38;;;;;;;10.82;3.60;;;;;;;8.67;66.92;100383.63;5143055;28;20054;-67
2022/11/21 06:29:06;;;;;;;7.13;3.47;;;;;;;8.69;66.31;100383.41;5142309;27;20046;-67
2022/11/21 06:31:34;;;;;;;9.10;4.22;;;;;;;8.67;67.35;100377.47;5140186;27;20054;-68
2022/11/21 06:34:02;;;;;;;7.43;3.33;;;;;;;8.64;66.69;100370.72;5138185;28;20055;-66
2022/11/21 06:36:29;;;;;;;9.15;3.78;;;;;;;8.63;67.25;100362.91;5137932;28;20046;-65
2022/11/21 06:38:57;;;;;;;6.47;3.17;;;;;;;8.63;66.63;100366.41;5122893;28;20048;-66
2022/11/21 06:41:29;;;;;;;10.15;4.32;;;;;;;8.63;66.36;100362.91;5123264;28;20051;-65
2022/11/21 06:43:59;;;;;;;5.68;3.08;;;;;;;8.64;66.59;100362.69;5136326;28;20566;-66
2022/11/21 06:46:27;;;;;;;8.57;3.70;;;;;;;8.67;66.50;100361.38;5137147;27;20052;-66
2022/11/21 06:48:55;;;;;;;7.72;3.78;;;;;;;8.67;67.44;100356.03;5145422;27;20129;-66
2022/11/21 06:51:24;;;;;;;7.22;3.53;;;;;;;8.66;66.73;100352.56;5146535;27;20579;-67
2022/11/21 06:53:54;;;;;;;6.47;3.20;;;;;;;8.69;66.49;100365.47;5145047;27;20607;-67
2022/11/21 06:56:22;;;;;;;6.32;3.30;;;;;;;8.68;66.82;100358.47;5137264;27;20108;-67
2022/11/21 06:58:51;;;;;;;7.32;3.25;;;;;;;8.68;66.40;100350.44;5143256;27;20051;-67
2022/11/21 07:01:19;;;;;;;9.18;3.70;;;;;;;8.67;66.32;100356.84;4781835;27;10000200;-66
2022/11/21 07:03:47;;;;;;;10.20;3.53;;;;;;;8.65;66.67;100352.78;5140718;27;20043;-66
2022/11/21 07:06:15;;;;;;;8.15;3.38;;;;;;;8.69;66.46;100356.63;5137354;27;20075;-65
2022/11/21 07:08:43;;;;;;;8.10;4.25;;;;;;;8.69;66.43;100352.09;5139272;27;20046;-67
2022/11/21 07:11:12;;;;;;;12.48;3.85;;;;;;;8.66;66.94;100344.53;5141853;27;20059;-68
2022/11/21 07:13:56;;;;;;;6.45;3.42;;;;;;;8.68;66.85;100338.91;5136118;27;20050;-67
2022/11/21 07:16:24;;;;;;;5.22;2.88;;;;;;;8.69;66.98;100340.56;5133097;27;20039;-66
2022/11/21 07:18:53;;;;;;;14.55;3.28;;;;;;;8.70;67.46;100355.59;5131973;27;20537;-61
2022/11/21 07:21:20;;;;;;;6.63;3.60;;;;;;;8.65;67.64;100355.47;5137666;27;20181;-64
2022/11/21 07:23:48;;;;;;;7.90;3.55;;;;;;;8.63;67.02;100347.66;5140810;27;20137;-63
2022/11/21 07:26:16;;;;;;;5.70;3.30;;;;;;;8.65;66.61;100342.88;5136212;27;20040;-63
2022/11/21 07:28:43;;;;;;;7.82;3.40;;;;;;;8.66;67.38;100341.84;5136622;27;20441;-64
2022/11/21 07:31:13;;;;;;;8.13;3.25;;;;;;;8.69;67.26;100348.59;5150495;27;20139;-64
2022/11/21 07:33:43;;;;;;;7.53;2.80;;;;;;;8.67;67.21;100346.13;5130151;27;20414;-64
2022/11/21 07:36:12;;;;;;;5.50;2.95;;;;;;;8.66;66.97;100341.84;5143216;27;20077;-64
2022/11/21 07:38:41;;;;;;;6.30;2.75;;;;;;;8.70;66.65;100339.50;5135935;27;20106;-63
2022/11/21 07:41:09;;;;;;;9.40;3.05;;;;;;;8.68;67.23;100349.63;5134379;27;20413;-63
2022/11/21 07:43:36;;;;;;;6.53;2.90;;;;;;;8.67;67.06;100343.44;5140452;27;20066;-63
2022/11/21 07:46:04;;;;;;;7.25;3.33;;;;;;;8.68;67.50;100339.72;5141077;27;20050;-64
2022/11/21 07:48:33;;;;;;;7.82;3.05;;;;;;;8.67;66.96;100346.13;5131611;27;20043;-64
2022/11/21 07:51:03;;;;;;;8.15;3.33;;;;;;;8.67;66.99;100342.63;5138566;27;20051;-64
2022/11/21 07:53:31;;;;;;;5.38;2.60;;;;;;;8.68;66.40;100339.72;5132294;27;20113;-64
2022/11/21 07:55:59;;;;;;;5.20;2.63;;;;;;;8.67;66.80;100332.72;5122492;28;20051;-64
2022/11/21 07:58:27;;;;;;;7.25;2.90;;;;;;;8.70;66.39;100328.78;5125770;27;20043;-64
2022/11/21 08:00:55;;;;;;;5.82;2.92;;;;;;;8.72;66.20;100319.50;5128652;27;20051;-64
2022/11/21 08:03:24;;;;;;;5.43;2.47;;;;;;;8.74;66.04;100308.56;5138121;27;20059;-64
2022/11/21 08:05:53;;;;;;;5.65;2.33;;;;;;;8.76;66.21;100315.31;5138004;27;20129;-63
2022/11/21 08:08:20;;;;;;;6.88;2.38;;;;;;;8.76;66.31;100317.19;5139502;27;20035;-64
2022/11/21 08:10:50;;;;;;;6.18;3.13;;;;;;;8.74;66.81;100330.81;5136204;27;20057;-64
2022/11/21 08:13:17;;;;;;;7.97;2.75;;;;;;;8.73;66.37;100320.31;5140392;27;20055;-66
2022/11/21 08:15:45;;;;;;;9.48;2.83;;;;;;;8.73;66.21;100320.31;5132238;27;20043;-65
2022/11/21 08:18:15;;;;;;;5.78;3.65;;;;;;;8.73;65.76;100323.00;5139310;27;20051;-64
2022/11/21 08:20:43;;;;;;;5.65;2.63;;;;;;;8.73;66.65;100317.63;5127146;27;20051;-65
2022/11/21 08:23:12;;;;;;;9.13;2.67;;;;;;;8.70;66.44;100318.06;5137089;27;20047;-65
2022/11/21 08:25:41;;;;;;;4.78;2.28;;;;;;;8.71;66.12;100311.69;5127992;27;20053;-65
2022/11/21 08:28:11;;;;;;;10.80;2.60;;;;;;;8.70;66.73;100302.81;5136935;27;20042;-65
2022/11/21 08:30:39;;;;;;;5.35;2.10;;;;;;;8.71;66.17;100303.66;5136232;27;20124;-70
2022/11/21 08:33:07;;;;;;;4.47;2.50;;;;;;;8.69;66.64;100295.00;5140677;27;20057;-64
2022/11/21 08:35:36;;;;;;;6.90;2.50;;;;;;;8.70;67.08;100280.56;5140538;27;20123;-66
2022/11/21 08:38:04;;;;;;;6.07;2.55;;;;;;;8.69;67.19;100276.25;5139018;27;20071;-65
2022/11/21 08:40:34;;;;;;;9.27;3.17;;;;;;;8.69;66.43;100273.59;5138698;27;20389;-65
2022/11/21 08:43:04;;;;;;;6.47;2.40;;;;;;;8.70;66.55;100272.53;5139270;27;20055;-65
2022/11/21 08:45:33;;;;;;;6.00;2.20;;;;;;;8.69;66.38;100276.25;5136664;27;20043;-66
2022/11/21 08:48:01;;;;;;;10.40;2.40;;;;;;;8.73;66.31;100277.44;5139023;27;20086;-63
2022/11/21 08:50:30;;;;;;;5.93;2.35;;;;;;;8.82;66.56;100287.63;5137514;27;20507;-65
2022/11/21 08:53:00;;;;;;;5.57;2.45;;;;;;;8.99;66.06;100279.81;5123498;28;20116;-65
2022/11/21 08:55:28;;;;;;;5.30;2.45;;;;;;;9.16;65.56;100269.28;5143765;27;20129;-66
2022/11/21 08:57:57;;;;;;;5.88;2.58;;;;;;;9.33;64.32;100280.19;5143631;27;20107;-66
2022/11/21 09:00:25;;;;;;;4.40;1.90;;;;;;;9.48;64.11;100272.56;5133516;27;20047;-65
2022/11/21 09:02:52;;;;;;;6.45;2.35;;;;;;;9.65;63.18;100275.41;5138340;27;20058;-65
2022/11/21 09:05:20;;;;;;;7.85;2.72;;;;;;;9.81;63.35;100263.19;5143384;27;20047;-65
2022/11/21 09:07:48;;;;;;;6.25;2.28;;;;;;;9.96;62.56;100263.56;5138295;27;20047;-65
2022/11/21 09:10:16;;;;;;;5.60;3.03;;;;;;;10.08;61.99;100262.53;5141574;27;20074;-66
2022/11/21 09:12:44;;;;;;;8.90;2.70;;;;;;;10.28;61.61;100256.00;5143749;27;20111;-65
2022/11/21 09:18:03;;;;;;;6.63;2.40;;;;;;;10.51;60.70;100249.78;5134954;27;20594;-66
2022/11/21 09:20:32;;;;;;;6.03;2.25;;;;;;;10.59;60.47;100246.72;5132120;27;20606;-66
2022/11/21 09:23:04;;;;;;;5.63;2.10;;;;;;;10.67;60.56;100252.53;5133241;27;20128;-66
2022/11/21 09:25:32;;;;;;;10.57;2.00;;;;;;;10.71;60.31;100253.72;5129974;27;20098;-66
2022/11/21 09:28:00;;;;;;;7.53;2.17;;;;;;;10.71;60.13;100245.66;5141464;27;20040;-66
2022/11/21 09:30:29;;;;;;;5.05;2.05;;;;;;;10.80;60.20;100246.09;5137745;27;20043;-66
2022/11/21 09:33:00;;;;;;;3.45;1.95;;;;;;;10.82;60.15;100243.97;5143533;27;20086;-66
2022/11/21 09:35:28;;;;;;;5.88;2.05;;;;;;;10.81;60.21;100234.28;5144312;27;20066;-66
2022/11/21 09:37:55;;;;;;;6.63;2.20;;;;;;;10.86;59.88;100230.88;5139366;27;20049;-66
2022/11/21 09:40:24;;;;;;;4.18;1.92;;;;;;;10.88;60.20;100234.16;5143559;27;20051;-66
2022/11/21 09:43:07;;;;;;;4.97;1.77;;;;;;;10.89;59.97;100223.16;5140131;27;20413;-66
2022/11/21 09:45:44;;;;;;;3.53;2.13;;;;;;;10.92;60.01;100220.00;5139126;27;20065;-66
2022/11/21 09:48:15;;;;;;;4.43;1.90;;;;;;;10.94;59.91;100215.19;5137861;27;20043;-66
2022/11/21 09:50:48;;;;;;;4.53;1.95;;;;;;;10.99;59.85;100214.47;5143394;28;20043;-66
2022/11/21 09:53:24;;;;;;;4.65;2.10;;;;;;;11.06;59.65;100210.59;5122534;28;20239;-66
2022/11/21 09:55:57;;;;;;;6.72;2.15;;;;;;;11.02;59.95;100209.44;5133827;28;20191;-66
2022/11/21 09:58:31;;;;;;;5.65;2.20;;;;;;;10.95;60.25;100205.25;5141770;28;20455;-66
2022/11/21 10:01:00;;;;;;;5.65;2.13;;;;;;;10.76;60.78;100213.50;5131235;28;20070;-65
2022/11/21 10:03:31;;;;;;;6.65;2.08;;;;;;;10.57;61.51;100203.97;5140509;28;20043;-65
2022/11/21 10:06:03;;;;;;;5.22;2.55;;;;;;;10.39;61.88;100193.41;5140115;28;20111;-66
2022/11/21 10:08:41;;;;;;;6.53;2.30;;;;;;;10.22;62.62;100187.13;5131013;28;20047;-66
2022/11/21 10:11:21;;;;;;;4.93;2.03;;;;;;;10.11;63.00;100194.09;5138729;28;20131;-66
2022/11/21 10:14:12;;;;;;;4.68;2.40;;;;;;;10.01;63.78;100188.50;5141626;28;20107;-66
2022/11/21 10:16:49;;;;;;;6.00;2.33;;;;;;;9.95;63.98;100189.44;5142382;28;20050;-66
2022/11/21 10:19:47;;;;;;;4.50;2.55;;;;;;;9.92;63.71;100188.03;5141417;28;20453;-65
2022/11/21 10:22:37;;;;;;;8.88;2.53;;;;;;;9.87;64.14;100184.44;5142995;27;20054;-65
2022/11/21 10:25:13;;;;;;;8.38;2.60;;;;;;;9.84;64.27;100176.84;5142265;27;20165;-66
2022/11/21 10:27:47;;;;;;;6.93;2.22;;;;;;;9.79;64.86;100162.25;5142343;27;20129;-66
2022/11/21 10:30:17;;;;;;;8.00;2.67;;;;;;;9.76;64.91;100160.03;5127042;28;20127;-66
2022/11/21 10:32:49;;;;;;;7.15;2.40;;;;;;;9.76;64.80;100159.22;5140797;27;20451;-66
2022/11/21 10:35:21;;;;;;;8.10;3.08;;;;;;;9.74;64.92;100159.47;5139060;27;20050;-66
2022/11/21 10:37:52;;;;;;;7.10;2.33;;;;;;;9.75;65.50;100150.34;5144210;27;20049;-64
2022/11/21 10:40:36;;;;;;;11.00;2.28;;;;;;;9.69;65.41;100148.59;5141984;27;20050;-63
2022/11/21 10:45:59;;;;;;;5.72;2.20;;;;;;;9.70;65.84;100142.19;5140014;27;20047;-63
2022/11/21 10:48:29;;;;;;;4.50;2.40;;;;;;;9.73;65.73;100138.22;5147269;27;20054;-64
2022/11/21 10:51:18;;;;;;;6.28;2.58;;;;;;;9.74;65.55;100145.22;5139627;27;20092;-63
2022/11/21 10:56:36;;;;;;;6.32;2.10;;;;;;;9.73;65.71;100133.69;5148204;27;20110;-65
2022/11/21 10:59:20;;;;;;;8.93;2.30;;;;;;;9.71;65.64;100133.09;5142379;27;20090;-66
2022/11/21 11:01:56;;;;;;;7.28;1.77;;;;;;;9.74;65.58;100131.81;5141687;27;20053;-66
2022/11/21 11:04:27;;;;;;;7.50;1.80;;;;;;;9.74;65.77;100124.56;5146235;27;20065;-65
2022/11/21 11:07:24;;;;;;;5.85;2.38;;;;;;;9.75;65.75;100123.53;5142245;27;20078;-64
2022/11/21 11:09:53;;;;;;;7.35;2.03;;;;;;;9.75;65.61;100107.44;5145697;27;20612;-65
2022/11/21 11:13:32;;;;;;;4.03;2.03;;;;;;;9.70;65.90;100096.56;5142232;27;20111;-64
2022/11/21 11:15:19;;;;;;;7.72;3.13;;;;;;;9.75;66.05;100102.06;5129949;27;20500;-65
2022/11/21 11:17:51;;;;;;;5.05;2.42;;;;;;;9.74;65.71;100103.09;5143353;27;20043;-65
2022/11/21 11:20:34;;;;;;;4.60;2.03;;;;;;;9.78;66.06;100095.41;5140396;27;20142;-65
2022/11/21 11:23:16;;;;;;;7.25;2.05;;;;;;;9.78;65.72;100093.53;5139601;27;20054;-65
2022/11/21 11:25:48;;;;;;;9.57;2.03;;;;;;;9.78;65.69;100090.84;5141934;27;20110;-64
2022/11/21 11:28:18;;;;;;;6.07;2.42;;;;;;;9.79;65.76;100083.63;5140197;27;20103;-64
2022/11/21 11:30:47;;;;;;;5.90;2.00;;;;;;;9.78;65.76;100076.63;5136220;27;20054;-65
2022/11/21 11:33:35;;;;;;;5.90;2.00;;;;;;;9.78;65.66;100069.38;5144882;27;20055;-65
2022/11/21 11:36:12;;;;;;;8.00;2.67;;;;;;;9.82;66.42;100064.38;5145914;27;20135;-64
2022/11/21 11:38:43;;;;;;;6.10;2.05;;;;;;;9.84;65.92;100053.41;5133073;27;20043;-64
2022/11/21 11:41:22;;;;;;;6.32;2.85;;;;;;;9.86;65.70;100048.59;5126331;27;20075;-65
2022/11/21 11:52:43;;;;;;;8.85;2.45;;;;;;;9.90;65.39;100010.31;5137054;27;20694;-64
2022/11/21 11:55:18;;;;;;;7.32;1.70;;;;;;;9.88;66.01;100004.38;5139208;27;20094;-65
2022/11/21 11:57:48;;;;;;;4.80;2.25;;;;;;;9.93;66.04;100004.47;5145504;27;20043;-65
2022/11/21 12:00:27;;;;;;;14.50;3.90;;;;;;;9.91;65.61;99995.84;5140529;27;20122;-65
2022/11/21 12:03:01;;;;;;;6.90;2.20;;;;;;;9.92;66.23;99993.97;5134551;27;20409;-65
2022/11/21 12:05:30;;;;;;;7.40;2.03;;;;;;;9.94;65.61;99987.31;5146232;27;20140;-65